DAL600 KATL-MWCR
Flight info
| Callsign | DAL600 |
|---|---|
| Flight time | 2h 9m |
| Altitude | 37000 |
| Route | SMLTZ3 WALET DCT ZPLEN Q79 VAULT/N0446F380 Q79 MCLAW Y442 FUNDI/N0446F390 UM335 ALVEK UM328 UCL/N0444F380 DCT LACET UL465 GCM |
| Aircraft | B739/M-SDE2E3FGHIRWXY/LB1 |
Departure
| Time | 2026-05-08 06:26 |
|---|---|
| Airport | Hartsfield Jackson Atlanta International Airport (KATL) |
Arrival
| Time | 2026-05-08 08:35 |
|---|---|
| Airport | Owen Roberts International Airport (MWCR) |
| Time | Latitude | Longitude | Altitude | Speed | Heading |
|---|---|---|---|---|---|
| 2026-05-08 05:58 | 33.64232 | -84.43206 | 1005 ft | 0 kts | 271° |
| 2026-05-08 06:15 | 33.64232 | -84.43188 | 1005 ft | 4 kts | 269° |
| 2026-05-08 06:15 | 33.64235 | -84.43157 | 1005 ft | 4 kts | 246° |
| 2026-05-08 06:16 | 33.64250 | -84.43134 | 1005 ft | 4 kts | 201° |
| 2026-05-08 06:16 | 33.64263 | -84.43130 | 1005 ft | 1 kts | 180° |
| 2026-05-08 06:19 | 33.64254 | -84.43130 | 1005 ft | 6 kts | 179° |
| 2026-05-08 06:19 | 33.64174 | -84.43129 | 1005 ft | 18 kts | 178° |
| 2026-05-08 06:19 | 33.64046 | -84.43129 | 1005 ft | 18 kts | 183° |
| 2026-05-08 06:19 | 33.63922 | -84.43130 | 1005 ft | 18 kts | 180° |
| 2026-05-08 06:20 | 33.63805 | -84.43130 | 1005 ft | 16 kts | 178° |
| 2026-05-08 06:20 | 33.63702 | -84.43118 | 1005 ft | 13 kts | 161° |
| 2026-05-08 06:20 | 33.63616 | -84.43093 | 1005 ft | 13 kts | 161° |
| 2026-05-08 06:20 | 33.63581 | -84.43005 | 1005 ft | 12 kts | 90° |
| 2026-05-08 06:21 | 33.63581 | -84.42898 | 1005 ft | 14 kts | 90° |
| 2026-05-08 06:21 | 33.63581 | -84.42775 | 1005 ft | 15 kts | 90° |
| 2026-05-08 06:21 | 33.63582 | -84.42651 | 1006 ft | 16 kts | 90° |
| 2026-05-08 06:21 | 33.63582 | -84.42518 | 1006 ft | 16 kts | 90° |
| 2026-05-08 06:22 | 33.63583 | -84.42388 | 1006 ft | 15 kts | 89° |
| 2026-05-08 06:22 | 33.63583 | -84.42264 | 1006 ft | 15 kts | 89° |
| 2026-05-08 06:22 | 33.63585 | -84.42148 | 1006 ft | 12 kts | 90° |
| 2026-05-08 06:22 | 33.63583 | -84.42031 | 1006 ft | 17 kts | 93° |
| 2026-05-08 06:23 | 33.63579 | -84.41865 | 1005 ft | 23 kts | 89° |
| 2026-05-08 06:23 | 33.63581 | -84.41672 | 1005 ft | 23 kts | 90° |
| 2026-05-08 06:23 | 33.63581 | -84.41485 | 1004 ft | 22 kts | 90° |
| 2026-05-08 06:23 | 33.63582 | -84.41302 | 1004 ft | 22 kts | 90° |
| 2026-05-08 06:24 | 33.63582 | -84.41125 | 1005 ft | 21 kts | 90° |
| 2026-05-08 06:24 | 33.63581 | -84.40953 | 1005 ft | 20 kts | 90° |
| 2026-05-08 06:24 | 33.63579 | -84.40795 | 1006 ft | 16 kts | 102° |
| 2026-05-08 06:24 | 33.63491 | -84.40747 | 1006 ft | 15 kts | 201° |
| 2026-05-08 06:25 | 33.63472 | -84.40839 | 1006 ft | 13 kts | 270° |
| 2026-05-08 06:25 | 33.63473 | -84.41181 | 1004 ft | 75 kts | 270° |
| 2026-05-08 06:25 | 33.63469 | -84.42057 | 1006 ft | 132 kts | 269° |
| 2026-05-08 06:25 | 33.63475 | -84.43350 | 1014 ft | 175 kts | 271° |
| 2026-05-08 06:26 | 33.63486 | -84.44853 | 1522 ft | 177 kts | 270° |
| 2026-05-08 06:26 | 33.63469 | -84.46322 | 2214 ft | 177 kts | 274° |
| 2026-05-08 06:26 | 33.63457 | -84.47806 | 2797 ft | 181 kts | 274° |
| 2026-05-08 06:26 | 33.63450 | -84.49387 | 3110 ft | 201 kts | 273° |
| 2026-05-08 06:27 | 33.63435 | -84.51170 | 3365 ft | 222 kts | 272° |
| 2026-05-08 06:27 | 33.63429 | -84.53087 | 3728 ft | 235 kts | 272° |
| 2026-05-08 06:27 | 33.63429 | -84.55114 | 4162 ft | 251 kts | 272° |
| 2026-05-08 06:27 | 33.63437 | -84.57191 | 4919 ft | 252 kts | 271° |
| 2026-05-08 06:28 | 33.63445 | -84.59303 | 5860 ft | 248 kts | 270° |
| 2026-05-08 06:28 | 33.63449 | -84.61341 | 6793 ft | 244 kts | 270° |
| 2026-05-08 06:28 | 33.63431 | -84.63379 | 7565 ft | 245 kts | 264° |
| 2026-05-08 06:28 | 33.62875 | -84.65315 | 8315 ft | 249 kts | 242° |
| 2026-05-08 06:29 | 33.61745 | -84.66902 | 9140 ft | 256 kts | 225° |
| 2026-05-08 06:29 | 33.60228 | -84.68109 | 9823 ft | 266 kts | 218° |
| 2026-05-08 06:29 | 33.58584 | -84.69175 | 10498 ft | 274 kts | 209° |
| 2026-05-08 06:29 | 33.56668 | -84.69552 | 11136 ft | 293 kts | 189° |
| 2026-05-08 06:30 | 33.54597 | -84.69313 | 11850 ft | 304 kts | 181° |
| 2026-05-08 06:30 | 33.52461 | -84.68872 | 12499 ft | 311 kts | 180° |
| 2026-05-08 06:30 | 33.50316 | -84.68409 | 13180 ft | 315 kts | 181° |
| 2026-05-08 06:30 | 33.48145 | -84.67967 | 13889 ft | 318 kts | 181° |
| 2026-05-08 06:31 | 33.45944 | -84.67542 | 14530 ft | 321 kts | 182° |
| 2026-05-08 06:31 | 33.43735 | -84.67121 | 15191 ft | 324 kts | 181° |
| 2026-05-08 06:31 | 33.41544 | -84.66170 | 15798 ft | 354 kts | 156° |
| 2026-05-08 06:31 | 33.39570 | -84.64199 | 16011 ft | 384 kts | 144° |
| 2026-05-08 06:32 | 33.37608 | -84.61895 | 16180 ft | 405 kts | 142° |
| 2026-05-08 06:32 | 33.35620 | -84.59480 | 16534 ft | 417 kts | 141° |
| 2026-05-08 06:32 | 33.33585 | -84.56993 | 17173 ft | 420 kts | 141° |
| 2026-05-08 06:32 | 33.31528 | -84.54497 | 17842 ft | 422 kts | 142° |
| 2026-05-08 06:33 | 33.29422 | -84.51971 | 18444 ft | 425 kts | 142° |
| 2026-05-08 06:33 | 33.27345 | -84.49504 | 18944 ft | 429 kts | 143° |
| 2026-05-08 06:33 | 33.25214 | -84.46987 | 19474 ft | 432 kts | 143° |
| 2026-05-08 06:33 | 33.23071 | -84.44464 | 20019 ft | 435 kts | 143° |
| 2026-05-08 06:34 | 33.20907 | -84.41921 | 20567 ft | 438 kts | 143° |
| 2026-05-08 06:34 | 33.18727 | -84.39360 | 21091 ft | 441 kts | 143° |
| 2026-05-08 06:34 | 33.16535 | -84.36787 | 21621 ft | 444 kts | 143° |
| 2026-05-08 06:34 | 33.14325 | -84.34196 | 22121 ft | 447 kts | 143° |
| 2026-05-08 06:35 | 33.12097 | -84.31585 | 22634 ft | 450 kts | 143° |
| 2026-05-08 06:35 | 33.09856 | -84.28958 | 23089 ft | 453 kts | 143° |
| 2026-05-08 06:35 | 33.07599 | -84.26314 | 23511 ft | 456 kts | 143° |
| 2026-05-08 06:35 | 33.05327 | -84.23654 | 23870 ft | 460 kts | 143° |
| 2026-05-08 06:36 | 33.03038 | -84.20978 | 24264 ft | 463 kts | 143° |
| 2026-05-08 06:36 | 33.00717 | -84.18327 | 24633 ft | 460 kts | 149° |
| 2026-05-08 06:36 | 32.98071 | -84.16376 | 24983 ft | 437 kts | 169° |
| 2026-05-08 06:36 | 32.95229 | -84.15189 | 25401 ft | 433 kts | 172° |
| 2026-05-08 06:37 | 32.92361 | -84.14056 | 25755 ft | 436 kts | 172° |
| 2026-05-08 06:37 | 32.90447 | -84.13302 | 25977 ft | 438 kts | 172° |
| 2026-05-08 06:37 | 32.87549 | -84.12150 | 26314 ft | 441 kts | 172° |
| 2026-05-08 06:37 | 32.84630 | -84.10974 | 26685 ft | 444 kts | 172° |
| 2026-05-08 06:38 | 32.81700 | -84.09781 | 27037 ft | 447 kts | 172° |
| 2026-05-08 06:38 | 32.78758 | -84.08574 | 27382 ft | 449 kts | 172° |
| 2026-05-08 06:38 | 32.75790 | -84.07353 | 27725 ft | 452 kts | 172° |
| 2026-05-08 06:38 | 32.72808 | -84.06126 | 27991 ft | 455 kts | 172° |
| 2026-05-08 06:39 | 32.69860 | -84.04914 | 28287 ft | 458 kts | 172° |
| 2026-05-08 06:39 | 32.66786 | -84.03652 | 28607 ft | 461 kts | 171° |
| 2026-05-08 06:39 | 32.63754 | -84.02407 | 28950 ft | 463 kts | 172° |
| 2026-05-08 06:39 | 32.60707 | -84.01157 | 29284 ft | 465 kts | 172° |
| 2026-05-08 06:40 | 32.57636 | -83.99899 | 29608 ft | 467 kts | 172° |
| 2026-05-08 06:40 | 32.54561 | -83.98640 | 29926 ft | 470 kts | 172° |
| 2026-05-08 06:40 | 32.51457 | -83.97370 | 30230 ft | 472 kts | 172° |
| 2026-05-08 06:40 | 32.48346 | -83.96098 | 30489 ft | 474 kts | 172° |
| 2026-05-08 06:41 | 32.45220 | -83.94821 | 30736 ft | 476 kts | 172° |
| 2026-05-08 06:41 | 32.42084 | -83.93540 | 31028 ft | 478 kts | 172° |
| 2026-05-08 06:41 | 32.38935 | -83.92254 | 31358 ft | 479 kts | 172° |
| 2026-05-08 06:41 | 32.35791 | -83.90974 | 31775 ft | 477 kts | 173° |
| 2026-05-08 06:42 | 32.32649 | -83.89777 | 32197 ft | 472 kts | 174° |
| 2026-05-08 06:42 | 32.29519 | -83.88659 | 32639 ft | 468 kts | 175° |
| 2026-05-08 06:42 | 32.26404 | -83.87576 | 33046 ft | 466 kts | 176° |
| 2026-05-08 06:42 | 32.23291 | -83.86496 | 33434 ft | 465 kts | 176° |
| 2026-05-08 06:43 | 32.20195 | -83.85415 | 33840 ft | 464 kts | 176° |
| 2026-05-08 06:43 | 32.17111 | -83.84328 | 34173 ft | 462 kts | 175° |
| 2026-05-08 06:43 | 32.14033 | -83.83236 | 34455 ft | 462 kts | 175° |
| 2026-05-08 06:43 | 32.10947 | -83.82142 | 34650 ft | 464 kts | 175° |
| 2026-05-08 06:44 | 32.07855 | -83.81043 | 34866 ft | 465 kts | 175° |
| 2026-05-08 06:44 | 32.04790 | -83.79952 | 35125 ft | 465 kts | 175° |
| 2026-05-08 06:44 | 32.01690 | -83.78848 | 35391 ft | 465 kts | 175° |
| 2026-05-08 06:44 | 31.98592 | -83.77746 | 35614 ft | 466 kts | 176° |
| 2026-05-08 06:45 | 31.95445 | -83.76628 | 35832 ft | 467 kts | 176° |
| 2026-05-08 06:45 | 31.92373 | -83.75538 | 36059 ft | 467 kts | 176° |
| 2026-05-08 06:45 | 31.89263 | -83.74435 | 36228 ft | 468 kts | 175° |
| 2026-05-08 06:45 | 31.86140 | -83.73329 | 36406 ft | 470 kts | 175° |
| 2026-05-08 06:46 | 31.83010 | -83.72220 | 36640 ft | 469 kts | 175° |
| 2026-05-08 06:46 | 31.79887 | -83.71113 | 36892 ft | 469 kts | 175° |
| 2026-05-08 06:46 | 31.76758 | -83.70007 | 37018 ft | 471 kts | 175° |
| 2026-05-08 06:46 | 31.73614 | -83.68897 | 37000 ft | 472 kts | 175° |
| 2026-05-08 06:47 | 31.67342 | -83.66664 | 37008 ft | 470 kts | 175° |
| 2026-05-08 06:47 | 31.61127 | -83.64286 | 36987 ft | 468 kts | 173° |
| 2026-05-08 06:48 | 31.54968 | -83.61881 | 37012 ft | 466 kts | 173° |
| 2026-05-08 06:48 | 31.48815 | -83.59501 | 37037 ft | 465 kts | 174° |
| 2026-05-08 06:49 | 31.42671 | -83.57144 | 37043 ft | 465 kts | 174° |
| 2026-05-08 06:49 | 31.36516 | -83.54791 | 37042 ft | 466 kts | 174° |
| 2026-05-08 06:50 | 31.30347 | -83.52434 | 37030 ft | 467 kts | 173° |
| 2026-05-08 06:50 | 31.24150 | -83.50069 | 37032 ft | 469 kts | 173° |
| 2026-05-08 06:51 | 31.17927 | -83.47697 | 37019 ft | 472 kts | 173° |
| 2026-05-08 06:51 | 31.11667 | -83.45313 | 37007 ft | 474 kts | 173° |
| 2026-05-08 06:52 | 31.05392 | -83.42925 | 36973 ft | 475 kts | 173° |
| 2026-05-08 06:52 | 30.99103 | -83.40535 | 36986 ft | 475 kts | 173° |
| 2026-05-08 06:53 | 30.92805 | -83.38146 | 36995 ft | 475 kts | 173° |
| 2026-05-08 06:53 | 30.86528 | -83.35768 | 36997 ft | 475 kts | 173° |
| 2026-05-08 06:54 | 30.80242 | -83.33390 | 36997 ft | 474 kts | 173° |
| 2026-05-08 06:54 | 30.74026 | -83.31042 | 36998 ft | 472 kts | 172° |
| 2026-05-08 06:55 | 30.67830 | -83.28394 | 37004 ft | 480 kts | 166° |
| 2026-05-08 06:55 | 30.61757 | -83.25083 | 36995 ft | 482 kts | 164° |
| 2026-05-08 06:56 | 30.55716 | -83.21720 | 37000 ft | 481 kts | 165° |
| 2026-05-08 06:56 | 30.49661 | -83.18426 | 37004 ft | 480 kts | 165° |
| 2026-05-08 06:57 | 30.43607 | -83.15178 | 37004 ft | 479 kts | 165° |
| 2026-05-08 06:57 | 30.37551 | -83.11943 | 37002 ft | 479 kts | 165° |
| 2026-05-08 06:58 | 30.31497 | -83.08710 | 37004 ft | 479 kts | 165° |
| 2026-05-08 06:58 | 30.25438 | -83.05476 | 37007 ft | 480 kts | 165° |
| 2026-05-08 06:59 | 30.19380 | -83.02247 | 36996 ft | 480 kts | 165° |
| 2026-05-08 06:59 | 30.13308 | -82.99013 | 37004 ft | 481 kts | 165° |
| 2026-05-08 07:00 | 30.07184 | -82.95762 | 37025 ft | 488 kts | 165° |
| 2026-05-08 07:00 | 30.00975 | -82.92466 | 37024 ft | 494 kts | 165° |
| 2026-05-08 07:01 | 29.94727 | -82.89147 | 37010 ft | 495 kts | 165° |
| 2026-05-08 07:01 | 29.88464 | -82.85828 | 37013 ft | 495 kts | 164° |
| 2026-05-08 07:02 | 29.82205 | -82.82512 | 37023 ft | 494 kts | 164° |
| 2026-05-08 07:02 | 29.75967 | -82.79209 | 37007 ft | 493 kts | 164° |
| 2026-05-08 07:03 | 29.69737 | -82.75913 | 37018 ft | 492 kts | 164° |
| 2026-05-08 07:03 | 29.63528 | -82.72634 | 37012 ft | 490 kts | 164° |
| 2026-05-08 07:04 | 29.57342 | -82.69372 | 37007 ft | 488 kts | 163° |
| 2026-05-08 07:04 | 29.51165 | -82.66119 | 37012 ft | 487 kts | 163° |
| 2026-05-08 07:05 | 29.45010 | -82.62882 | 37019 ft | 487 kts | 163° |
| 2026-05-08 07:05 | 29.38855 | -82.59650 | 37014 ft | 486 kts | 164° |
| 2026-05-08 07:06 | 29.32744 | -82.56443 | 36979 ft | 486 kts | 163° |
| 2026-05-08 07:06 | 29.26592 | -82.53277 | 37009 ft | 482 kts | 168° |
| 2026-05-08 07:07 | 29.23420 | -82.52174 | 37009 ft | 470 kts | 178° |
| 2026-05-08 07:07 | 29.20218 | -82.51571 | 37028 ft | 465 kts | 180° |
| 2026-05-08 07:07 | 29.13803 | -82.50493 | 37028 ft | 467 kts | 180° |
| 2026-05-08 07:08 | 29.07369 | -82.49385 | 37023 ft | 468 kts | 180° |
| 2026-05-08 07:08 | 29.00920 | -82.48232 | 37015 ft | 470 kts | 179° |
| 2026-05-08 07:09 | 28.94472 | -82.47063 | 37024 ft | 471 kts | 179° |
| 2026-05-08 07:09 | 28.87986 | -82.45889 | 37022 ft | 472 kts | 179° |
| 2026-05-08 07:10 | 28.81481 | -82.44714 | 37023 ft | 473 kts | 179° |
| 2026-05-08 07:10 | 28.74987 | -82.43543 | 37034 ft | 473 kts | 179° |
| 2026-05-08 07:11 | 28.68479 | -82.42371 | 37027 ft | 473 kts | 179° |
| 2026-05-08 07:11 | 28.61969 | -82.41201 | 37024 ft | 473 kts | 179° |
| 2026-05-08 07:12 | 28.55462 | -82.40032 | 37030 ft | 473 kts | 179° |
| 2026-05-08 07:12 | 28.48978 | -82.38869 | 37017 ft | 472 kts | 179° |
| 2026-05-08 07:13 | 28.42483 | -82.37706 | 37010 ft | 471 kts | 178° |
| 2026-05-08 07:13 | 28.36004 | -82.36546 | 37029 ft | 471 kts | 178° |
| 2026-05-08 07:14 | 28.29536 | -82.35391 | 37032 ft | 471 kts | 178° |
| 2026-05-08 07:14 | 28.23070 | -82.34237 | 37043 ft | 470 kts | 179° |
| 2026-05-08 07:15 | 28.16607 | -82.33086 | 37042 ft | 470 kts | 179° |
| 2026-05-08 07:15 | 28.10140 | -82.31934 | 37024 ft | 470 kts | 178° |
| 2026-05-08 07:16 | 28.03690 | -82.30781 | 37031 ft | 471 kts | 177° |
| 2026-05-08 07:16 | 27.97281 | -82.28878 | 37029 ft | 479 kts | 169° |
| 2026-05-08 07:17 | 27.90934 | -82.26594 | 37029 ft | 480 kts | 169° |
| 2026-05-08 07:17 | 27.84614 | -82.24347 | 37019 ft | 480 kts | 169° |
| 2026-05-08 07:18 | 27.78226 | -82.22140 | 37026 ft | 479 kts | 169° |
| 2026-05-08 07:18 | 27.71812 | -82.19952 | 37030 ft | 479 kts | 169° |
| 2026-05-08 07:19 | 27.65367 | -82.17758 | 37029 ft | 480 kts | 169° |
| 2026-05-08 07:19 | 27.59020 | -82.15597 | 37023 ft | 480 kts | 169° |
| 2026-05-08 07:20 | 27.52627 | -82.13421 | 37023 ft | 480 kts | 169° |
| 2026-05-08 07:20 | 27.46229 | -82.11246 | 37020 ft | 480 kts | 169° |
| 2026-05-08 07:21 | 27.39835 | -82.09075 | 37024 ft | 480 kts | 169° |
| 2026-05-08 07:21 | 27.33436 | -82.06906 | 37023 ft | 480 kts | 169° |
| 2026-05-08 07:22 | 27.27041 | -82.04740 | 37023 ft | 480 kts | 169° |
| 2026-05-08 07:22 | 27.20655 | -82.02580 | 37021 ft | 479 kts | 169° |
| 2026-05-08 07:23 | 27.15352 | -82.00787 | 37033 ft | 479 kts | 169° |
| 2026-05-08 07:23 | 27.08969 | -81.98632 | 37040 ft | 479 kts | 169° |
| 2026-05-08 07:24 | 27.02731 | -81.95881 | 37057 ft | 486 kts | 159° |
| 2026-05-08 07:24 | 26.96678 | -81.92471 | 37046 ft | 487 kts | 158° |
| 2026-05-08 07:25 | 26.90626 | -81.89049 | 37040 ft | 487 kts | 159° |
| 2026-05-08 07:26 | 26.81529 | -81.84033 | 37040 ft | 486 kts | 159° |
| 2026-05-08 07:26 | 26.75447 | -81.80712 | 37034 ft | 486 kts | 159° |
| 2026-05-08 07:27 | 26.69374 | -81.77399 | 37021 ft | 486 kts | 159° |
| 2026-05-08 07:27 | 26.63296 | -81.74083 | 37026 ft | 486 kts | 159° |
| 2026-05-08 07:28 | 26.57233 | -81.70777 | 37023 ft | 485 kts | 159° |
| 2026-05-08 07:28 | 26.51173 | -81.67480 | 37029 ft | 485 kts | 159° |
| 2026-05-08 07:29 | 26.45083 | -81.64169 | 37022 ft | 485 kts | 159° |
| 2026-05-08 07:29 | 26.39015 | -81.60874 | 37028 ft | 485 kts | 159° |
| 2026-05-08 07:30 | 26.32953 | -81.57586 | 37017 ft | 485 kts | 159° |
| 2026-05-08 07:30 | 26.26927 | -81.54321 | 37013 ft | 484 kts | 158° |
| 2026-05-08 07:31 | 26.20825 | -81.51019 | 37017 ft | 484 kts | 158° |
| 2026-05-08 07:31 | 26.14800 | -81.47762 | 37030 ft | 484 kts | 158° |
| 2026-05-08 07:32 | 26.08672 | -81.44722 | 37014 ft | 479 kts | 167° |
| 2026-05-08 07:32 | 26.02306 | -81.42590 | 37031 ft | 477 kts | 169° |
| 2026-05-08 07:33 | 25.95930 | -81.40553 | 37021 ft | 477 kts | 168° |
| 2026-05-08 07:33 | 25.89559 | -81.38464 | 37018 ft | 477 kts | 168° |
| 2026-05-08 07:34 | 25.83200 | -81.36340 | 37019 ft | 477 kts | 168° |
| 2026-05-08 07:34 | 25.76839 | -81.34205 | 37026 ft | 477 kts | 168° |
| 2026-05-08 07:35 | 25.70486 | -81.32076 | 37025 ft | 477 kts | 168° |
| 2026-05-08 07:35 | 25.64136 | -81.29953 | 37019 ft | 477 kts | 167° |
| 2026-05-08 07:36 | 25.57779 | -81.27831 | 37014 ft | 476 kts | 167° |
| 2026-05-08 07:36 | 25.51450 | -81.25721 | 37017 ft | 475 kts | 167° |
| 2026-05-08 07:37 | 25.45115 | -81.23611 | 37018 ft | 475 kts | 167° |
| 2026-05-08 07:37 | 25.38781 | -81.21503 | 37017 ft | 475 kts | 167° |
| 2026-05-08 07:38 | 25.32460 | -81.19402 | 37012 ft | 474 kts | 167° |
| 2026-05-08 07:38 | 25.26138 | -81.17303 | 37016 ft | 474 kts | 167° |
| 2026-05-08 07:39 | 25.19827 | -81.15211 | 37012 ft | 474 kts | 167° |
| 2026-05-08 07:39 | 25.13508 | -81.13117 | 37010 ft | 474 kts | 167° |
| 2026-05-08 07:40 | 25.07186 | -81.11025 | 37010 ft | 474 kts | 167° |
| 2026-05-08 07:40 | 25.00869 | -81.08937 | 37010 ft | 474 kts | 167° |
| 2026-05-08 07:41 | 24.94548 | -81.06850 | 37016 ft | 475 kts | 167° |
| 2026-05-08 07:41 | 24.88210 | -81.04759 | 37016 ft | 475 kts | 167° |
| 2026-05-08 07:42 | 24.81871 | -81.02669 | 37020 ft | 476 kts | 167° |
| 2026-05-08 07:42 | 24.75463 | -81.01003 | 37014 ft | 470 kts | 179° |
| 2026-05-08 07:43 | 24.68983 | -81.01105 | 37021 ft | 465 kts | 187° |
| 2026-05-08 07:43 | 24.62506 | -81.01458 | 37022 ft | 466 kts | 186° |
| 2026-05-08 07:44 | 24.56023 | -81.01720 | 37019 ft | 468 kts | 185° |
| 2026-05-08 07:44 | 24.49544 | -81.01733 | 37016 ft | 470 kts | 183° |
| 2026-05-08 07:45 | 24.42987 | -81.01615 | 37013 ft | 471 kts | 183° |
| 2026-05-08 07:45 | 24.36432 | -81.01523 | 37014 ft | 471 kts | 183° |
| 2026-05-08 07:45 | 24.33148 | -81.01490 | 37140 ft | 473 kts | 183° |
| 2026-05-08 07:46 | 24.29864 | -81.01461 | 37448 ft | 471 kts | 183° |
| 2026-05-08 07:46 | 24.26596 | -81.01432 | 37814 ft | 467 kts | 183° |
| 2026-05-08 07:46 | 24.23354 | -81.01404 | 38023 ft | 467 kts | 183° |
| 2026-05-08 07:47 | 24.16856 | -81.01348 | 38000 ft | 466 kts | 183° |
| 2026-05-08 07:47 | 24.10397 | -81.01291 | 38001 ft | 463 kts | 183° |
| 2026-05-08 07:48 | 24.03965 | -81.01235 | 38007 ft | 461 kts | 183° |
| 2026-05-08 07:48 | 23.97545 | -81.01148 | 38009 ft | 462 kts | 182° |
| 2026-05-08 07:49 | 23.91122 | -81.00873 | 38011 ft | 463 kts | 181° |
| 2026-05-08 07:49 | 23.84683 | -81.00559 | 38009 ft | 464 kts | 181° |
| 2026-05-08 07:50 | 23.78220 | -81.00266 | 37994 ft | 466 kts | 181° |
| 2026-05-08 07:50 | 23.71730 | -80.99986 | 38016 ft | 467 kts | 181° |
| 2026-05-08 07:51 | 23.65217 | -80.99709 | 38005 ft | 469 kts | 181° |
| 2026-05-08 07:51 | 23.58721 | -80.99432 | 38001 ft | 471 kts | 181° |
| 2026-05-08 07:52 | 23.52113 | -80.99149 | 37999 ft | 472 kts | 181° |
| 2026-05-08 07:52 | 23.45595 | -80.98871 | 37993 ft | 473 kts | 180° |
| 2026-05-08 07:53 | 23.39016 | -80.98590 | 38012 ft | 473 kts | 180° |
| 2026-05-08 07:53 | 23.32447 | -80.98311 | 38011 ft | 473 kts | 180° |
| 2026-05-08 07:54 | 23.25870 | -80.98032 | 37999 ft | 472 kts | 180° |
| 2026-05-08 07:54 | 23.19309 | -80.97767 | 38011 ft | 472 kts | 180° |
| 2026-05-08 07:55 | 23.12750 | -80.97504 | 37994 ft | 471 kts | 180° |
| 2026-05-08 07:55 | 23.06209 | -80.97243 | 37999 ft | 471 kts | 180° |
| 2026-05-08 07:56 | 22.99759 | -80.97957 | 38013 ft | 464 kts | 198° |
| 2026-05-08 07:56 | 22.93726 | -81.00295 | 37996 ft | 461 kts | 204° |
| 2026-05-08 07:57 | 22.87732 | -81.02776 | 38011 ft | 461 kts | 203° |
| 2026-05-08 07:57 | 22.81717 | -81.05224 | 37995 ft | 461 kts | 203° |
| 2026-05-08 07:58 | 22.75695 | -81.07641 | 38003 ft | 462 kts | 202° |
| 2026-05-08 07:58 | 22.69660 | -81.10051 | 38001 ft | 463 kts | 202° |
| 2026-05-08 07:59 | 22.63617 | -81.12462 | 37993 ft | 463 kts | 202° |
| 2026-05-08 07:59 | 22.57566 | -81.14875 | 37990 ft | 464 kts | 202° |
| 2026-05-08 08:00 | 22.51513 | -81.17288 | 37995 ft | 464 kts | 202° |
| 2026-05-08 08:00 | 22.45438 | -81.19707 | 37996 ft | 465 kts | 202° |
| 2026-05-08 08:01 | 22.39407 | -81.22106 | 38000 ft | 465 kts | 202° |
| 2026-05-08 08:01 | 22.33333 | -81.24521 | 37985 ft | 465 kts | 202° |
| 2026-05-08 08:02 | 22.27252 | -81.26935 | 37995 ft | 465 kts | 202° |
| 2026-05-08 08:02 | 22.21171 | -81.29347 | 37990 ft | 465 kts | 202° |
| 2026-05-08 08:03 | 22.15100 | -81.31754 | 37999 ft | 465 kts | 202° |
| 2026-05-08 08:03 | 22.09027 | -81.34159 | 37998 ft | 465 kts | 202° |
| 2026-05-08 08:04 | 22.02953 | -81.36562 | 37987 ft | 464 kts | 202° |
| 2026-05-08 08:04 | 21.96884 | -81.38961 | 37986 ft | 464 kts | 202° |
| 2026-05-08 08:05 | 21.90828 | -81.41352 | 37991 ft | 464 kts | 202° |
| 2026-05-08 08:05 | 21.84760 | -81.43747 | 37992 ft | 464 kts | 202° |
| 2026-05-08 08:06 | 21.78700 | -81.46136 | 38002 ft | 464 kts | 202° |
| 2026-05-08 08:06 | 21.72648 | -81.48520 | 38001 ft | 464 kts | 202° |
| 2026-05-08 08:07 | 21.66587 | -81.50906 | 37982 ft | 464 kts | 202° |
| 2026-05-08 08:07 | 21.60429 | -81.52883 | 37986 ft | 466 kts | 190° |
| 2026-05-08 08:08 | 21.53923 | -81.52954 | 37999 ft | 468 kts | 177° |
| 2026-05-08 08:08 | 21.47439 | -81.52426 | 37995 ft | 468 kts | 177° |
| 2026-05-08 08:09 | 21.40923 | -81.51925 | 37993 ft | 469 kts | 177° |
| 2026-05-08 08:09 | 21.35524 | -81.51535 | 37991 ft | 469 kts | 178° |
| 2026-05-08 08:10 | 21.28993 | -81.51076 | 37984 ft | 470 kts | 178° |
| 2026-05-08 08:10 | 21.22470 | -81.50620 | 37987 ft | 470 kts | 178° |
| 2026-05-08 08:11 | 21.15937 | -81.50162 | 37689 ft | 476 kts | 178° |
| 2026-05-08 08:11 | 21.12613 | -81.49929 | 37048 ft | 479 kts | 177° |
| 2026-05-08 08:11 | 21.09301 | -81.49697 | 36376 ft | 478 kts | 177° |
| 2026-05-08 08:11 | 21.05970 | -81.49463 | 35662 ft | 478 kts | 177° |
| 2026-05-08 08:12 | 21.02646 | -81.49230 | 34882 ft | 480 kts | 177° |
| 2026-05-08 08:12 | 20.99310 | -81.48996 | 34060 ft | 483 kts | 177° |
| 2026-05-08 08:12 | 20.95943 | -81.48760 | 33115 ft | 486 kts | 177° |
| 2026-05-08 08:12 | 20.92577 | -81.48525 | 32275 ft | 487 kts | 177° |
| 2026-05-08 08:13 | 20.89194 | -81.48287 | 31687 ft | 482 kts | 177° |
| 2026-05-08 08:13 | 20.85858 | -81.48053 | 31076 ft | 478 kts | 177° |
| 2026-05-08 08:13 | 20.82552 | -81.47822 | 30486 ft | 474 kts | 177° |
| 2026-05-08 08:13 | 20.79278 | -81.47593 | 29848 ft | 471 kts | 177° |
| 2026-05-08 08:14 | 20.76019 | -81.47365 | 29182 ft | 467 kts | 177° |
| 2026-05-08 08:14 | 20.72801 | -81.47141 | 28565 ft | 462 kts | 177° |
| 2026-05-08 08:14 | 20.69600 | -81.46917 | 27968 ft | 458 kts | 177° |
| 2026-05-08 08:14 | 20.66440 | -81.46697 | 27382 ft | 453 kts | 177° |
| 2026-05-08 08:15 | 20.63310 | -81.46479 | 26804 ft | 449 kts | 177° |
| 2026-05-08 08:15 | 20.60204 | -81.46262 | 26234 ft | 445 kts | 177° |
| 2026-05-08 08:15 | 20.57120 | -81.46048 | 25666 ft | 442 kts | 176° |
| 2026-05-08 08:15 | 20.54060 | -81.45835 | 25079 ft | 440 kts | 176° |
| 2026-05-08 08:16 | 20.51013 | -81.45623 | 24504 ft | 438 kts | 176° |
| 2026-05-08 08:16 | 20.47977 | -81.45412 | 23925 ft | 436 kts | 176° |
| 2026-05-08 08:16 | 20.44957 | -81.45202 | 23315 ft | 434 kts | 176° |
| 2026-05-08 08:16 | 20.41946 | -81.44993 | 22691 ft | 431 kts | 176° |
| 2026-05-08 08:17 | 20.38962 | -81.44785 | 22095 ft | 428 kts | 175° |
| 2026-05-08 08:17 | 20.36009 | -81.44580 | 21519 ft | 421 kts | 175° |
| 2026-05-08 08:17 | 20.33120 | -81.44380 | 20955 ft | 412 kts | 175° |
| 2026-05-08 08:17 | 20.30292 | -81.44184 | 20425 ft | 403 kts | 175° |
| 2026-05-08 08:18 | 20.27517 | -81.43992 | 19903 ft | 395 kts | 175° |
| 2026-05-08 08:18 | 20.24798 | -81.43804 | 19375 ft | 389 kts | 174° |
| 2026-05-08 08:18 | 20.22113 | -81.43617 | 18854 ft | 384 kts | 174° |
| 2026-05-08 08:18 | 20.19468 | -81.43434 | 18337 ft | 378 kts | 174° |
| 2026-05-08 08:19 | 20.16860 | -81.43253 | 17770 ft | 373 kts | 174° |
| 2026-05-08 08:19 | 20.14290 | -81.43075 | 17243 ft | 367 kts | 174° |
| 2026-05-08 08:19 | 20.11751 | -81.42899 | 16740 ft | 365 kts | 174° |
| 2026-05-08 08:19 | 20.09220 | -81.42723 | 16230 ft | 364 kts | 174° |
| 2026-05-08 08:20 | 20.06699 | -81.42547 | 15731 ft | 363 kts | 174° |
| 2026-05-08 08:20 | 20.04174 | -81.42372 | 15220 ft | 363 kts | 174° |
| 2026-05-08 08:20 | 20.01656 | -81.42198 | 14712 ft | 363 kts | 174° |
| 2026-05-08 08:20 | 19.99122 | -81.42154 | 14184 ft | 366 kts | 184° |
| 2026-05-08 08:21 | 19.96613 | -81.42594 | 13715 ft | 365 kts | 189° |
| 2026-05-08 08:21 | 19.94122 | -81.43142 | 13161 ft | 365 kts | 190° |
| 2026-05-08 08:21 | 19.91648 | -81.43705 | 12662 ft | 363 kts | 190° |
| 2026-05-08 08:21 | 19.89180 | -81.44259 | 12153 ft | 361 kts | 190° |
| 2026-05-08 08:22 | 19.86726 | -81.44796 | 11655 ft | 359 kts | 190° |
| 2026-05-08 08:22 | 19.84300 | -81.45317 | 11153 ft | 352 kts | 190° |
| 2026-05-08 08:22 | 19.81928 | -81.45817 | 10662 ft | 344 kts | 189° |
| 2026-05-08 08:22 | 19.79633 | -81.46298 | 10490 ft | 329 kts | 189° |
| 2026-05-08 08:23 | 19.77471 | -81.46748 | 10333 ft | 314 kts | 189° |
| 2026-05-08 08:23 | 19.75374 | -81.47183 | 10191 ft | 300 kts | 189° |
| 2026-05-08 08:23 | 19.73353 | -81.47602 | 10076 ft | 291 kts | 188° |
| 2026-05-08 08:23 | 19.71394 | -81.48006 | 9921 ft | 283 kts | 189° |
| 2026-05-08 08:24 | 19.69461 | -81.48405 | 9584 ft | 283 kts | 188° |
| 2026-05-08 08:24 | 19.67532 | -81.48802 | 9259 ft | 281 kts | 188° |
| 2026-05-08 08:24 | 19.65614 | -81.49197 | 8946 ft | 280 kts | 189° |
| 2026-05-08 08:24 | 19.63704 | -81.49591 | 8635 ft | 279 kts | 188° |
| 2026-05-08 08:25 | 19.61802 | -81.49984 | 8310 ft | 279 kts | 188° |
| 2026-05-08 08:25 | 19.59901 | -81.50376 | 7987 ft | 278 kts | 188° |
| 2026-05-08 08:25 | 19.58003 | -81.50767 | 7672 ft | 277 kts | 189° |
| 2026-05-08 08:25 | 19.56110 | -81.51158 | 7338 ft | 277 kts | 188° |
| 2026-05-08 08:26 | 19.54221 | -81.51547 | 7026 ft | 276 kts | 188° |
| 2026-05-08 08:26 | 19.52333 | -81.51936 | 6705 ft | 276 kts | 188° |
| 2026-05-08 08:26 | 19.50452 | -81.52324 | 6390 ft | 276 kts | 188° |
| 2026-05-08 08:26 | 19.48568 | -81.52712 | 6039 ft | 276 kts | 188° |
| 2026-05-08 08:27 | 19.46685 | -81.53100 | 5723 ft | 274 kts | 188° |
| 2026-05-08 08:27 | 19.44860 | -81.53477 | 5695 ft | 259 kts | 188° |
| 2026-05-08 08:27 | 19.43146 | -81.53832 | 5574 ft | 244 kts | 188° |
| 2026-05-08 08:27 | 19.41523 | -81.54167 | 5469 ft | 230 kts | 187° |
| 2026-05-08 08:28 | 19.39995 | -81.54482 | 5364 ft | 217 kts | 187° |
| 2026-05-08 08:28 | 19.38558 | -81.54778 | 5249 ft | 205 kts | 187° |
| 2026-05-08 08:28 | 19.37172 | -81.55063 | 4968 ft | 202 kts | 187° |
| 2026-05-08 08:28 | 19.35797 | -81.55345 | 4633 ft | 201 kts | 187° |
| 2026-05-08 08:29 | 19.34429 | -81.55455 | 4285 ft | 195 kts | 164° |
| 2026-05-08 08:29 | 19.33147 | -81.55068 | 4018 ft | 187 kts | 162° |
| 2026-05-08 08:29 | 19.31941 | -81.54740 | 3894 ft | 174 kts | 162° |
| 2026-05-08 08:29 | 19.30770 | -81.54428 | 3562 ft | 173 kts | 162° |
| 2026-05-08 08:30 | 19.29622 | -81.54122 | 3372 ft | 166 kts | 163° |
| 2026-05-08 08:30 | 19.28498 | -81.53824 | 3265 ft | 166 kts | 162° |
| 2026-05-08 08:30 | 19.26246 | -81.53100 | 3010 ft | 176 kts | 141° |
| 2026-05-08 08:31 | 19.25643 | -81.52040 | 2819 ft | 172 kts | 94° |
| 2026-05-08 08:31 | 19.25799 | -81.50801 | 2652 ft | 171 kts | 86° |
| 2026-05-08 08:31 | 19.25980 | -81.49564 | 2437 ft | 167 kts | 80° |
| 2026-05-08 08:31 | 19.26278 | -81.48359 | 2200 ft | 169 kts | 78° |
| 2026-05-08 08:32 | 19.26566 | -81.47188 | 1985 ft | 161 kts | 78° |
| 2026-05-08 08:32 | 19.26832 | -81.46076 | 1768 ft | 149 kts | 79° |
| 2026-05-08 08:32 | 19.27078 | -81.45039 | 1569 ft | 143 kts | 78° |
| 2026-05-08 08:32 | 19.27319 | -81.44020 | 1410 ft | 145 kts | 78° |
| 2026-05-08 08:33 | 19.27562 | -81.42997 | 1200 ft | 141 kts | 78° |
| 2026-05-08 08:33 | 19.27799 | -81.42001 | 1018 ft | 145 kts | 80° |
| 2026-05-08 08:33 | 19.28043 | -81.40960 | 876 ft | 143 kts | 78° |
| 2026-05-08 08:33 | 19.28277 | -81.39941 | 714 ft | 144 kts | 77° |
| 2026-05-08 08:34 | 19.28532 | -81.38944 | 475 ft | 137 kts | 76° |
| 2026-05-08 08:34 | 19.28755 | -81.37965 | 277 ft | 136 kts | 76° |
| 2026-05-08 08:34 | 19.28990 | -81.36978 | 112 ft | 140 kts | 78° |
| 2026-05-08 08:34 | 19.29231 | -81.36005 | 16 ft | 124 kts | 78° |
| 2026-05-08 08:35 | 19.29388 | -81.35316 | 13 ft | 65 kts | 76° |
| 2026-05-08 08:35 | 19.29450 | -81.35057 | 15 ft | 22 kts | 77° |
| 2026-05-08 08:35 | 19.29491 | -81.34897 | 17 ft | 21 kts | 63° |
| 2026-05-08 08:35 | 19.29571 | -81.34907 | 16 ft | 12 kts | 301° |
| 2026-05-08 08:36 | 19.29564 | -81.34993 | 14 ft | 12 kts | 256° |
| 2026-05-08 08:36 | 19.29545 | -81.35077 | 14 ft | 12 kts | 257° |
| 2026-05-08 08:36 | 19.29523 | -81.35172 | 14 ft | 15 kts | 255° |
| 2026-05-08 08:36 | 19.29495 | -81.35287 | 14 ft | 16 kts | 255° |
| 2026-05-08 08:37 | 19.29467 | -81.35400 | 14 ft | 16 kts | 255° |
| 2026-05-08 08:37 | 19.29441 | -81.35508 | 14 ft | 14 kts | 256° |
| 2026-05-08 08:37 | 19.29448 | -81.35583 | 15 ft | 11 kts | 323° |
| 2026-05-08 08:37 | 19.29467 | -81.35653 | 14 ft | 10 kts | 258° |
| 2026-05-08 08:38 | 19.29458 | -81.35696 | 14 ft | 1 kts | 257° |
| 2026-05-08 08:38 | 19.29462 | -81.35707 | 14 ft | 2 kts | 308° |
| 2026-05-08 08:38 | 19.29481 | -81.35717 | 15 ft | 3 kts | 341° |
| 2026-05-08 08:38 | 19.29503 | -81.35724 | 14 ft | 3 kts | 345° |
| 2026-05-08 08:39 | 19.29524 | -81.35729 | 14 ft | 0 kts | 347° |
| 2026-05-08 08:39 | 19.29528 | -81.35730 | 14 ft | 0 kts | 347° |